sensor_id;sensor_type;location;lat;lon;timestamp;pressure;altitude;pressure_sealevel;temperature;humidity
38806;BME280;25635;51.146;17.162;2022-10-31T00:01:24;100442.96;;;9.61;86.05
38806;BME280;25635;51.146;17.162;2022-10-31T00:03:53;100450.37;;;9.58;85.98
38806;BME280;25635;51.146;17.162;2022-10-31T00:06:20;100443.39;;;9.57;86.54
38806;BME280;25635;51.146;17.162;2022-10-31T00:08:52;100448.19;;;9.56;86.32
38806;BME280;25635;51.146;17.162;2022-10-31T00:11:21;100451.23;;;9.52;85.98
38806;BME280;25635;51.146;17.162;2022-10-31T00:13:48;100445.56;;;9.48;86.34
38806;BME280;25635;51.146;17.162;2022-10-31T00:16:19;100450.34;;;9.44;86.23
38806;BME280;25635;51.146;17.162;2022-10-31T00:18:51;100443.84;;;9.41;86.36
38806;BME280;25635;51.146;17.162;2022-10-31T00:21:19;100448.19;;;9.39;86.43
38806;BME280;25635;51.146;17.162;2022-10-31T00:23:46;100445.56;;;9.38;86.51
38806;BME280;25635;51.146;17.162;2022-10-31T00:26:14;100443.83;;;9.35;86.48
38806;BME280;25635;51.146;17.162;2022-10-31T00:28:40;100451.66;;;9.35;86.39
38806;BME280;25635;51.146;17.162;2022-10-31T00:31:08;100449.04;;;9.33;86.40
38806;BME280;25635;51.146;17.162;2022-10-31T00:33:38;100450.33;;;9.30;86.58
38806;BME280;25635;51.146;17.162;2022-10-31T00:36:06;100454.67;;;9.28;86.69
38806;BME280;25635;51.146;17.162;2022-10-31T00:38:33;100452.49;;;9.26;86.58
38806;BME280;25635;51.146;17.162;2022-10-31T00:40:59;100456.42;;;9.23;86.91
38806;BME280;25635;51.146;17.162;2022-10-31T00:43:26;100456.86;;;9.23;87.25
38806;BME280;25635;51.146;17.162;2022-10-31T00:45:52;100456.86;;;9.23;87.01
38806;BME280;25635;51.146;17.162;2022-10-31T00:48:18;100449.88;;;9.20;86.75
38806;BME280;25635;51.146;17.162;2022-10-31T00:50:45;100447.28;;;9.19;86.82
38806;BME280;25635;51.146;17.162;2022-10-31T00:53:11;100446.83;;;9.18;86.76
38806;BME280;25635;51.146;17.162;2022-10-31T00:55:38;100448.13;;;9.18;87.02
38806;BME280;25635;51.146;17.162;2022-10-31T00:58:04;100444.22;;;9.18;87.25
38806;BME280;25635;51.146;17.162;2022-10-31T01:00:30;100449.44;;;9.18;87.04
38806;BME280;25635;51.146;17.162;2022-10-31T01:02:57;100446.39;;;9.15;86.85
38806;BME280;25635;51.146;17.162;2022-10-31T01:05:23;100452.48;;;9.12;87.28
38806;BME280;25635;51.146;17.162;2022-10-31T01:07:49;100454.22;;;9.10;87.09
38806;BME280;25635;51.146;17.162;2022-10-31T01:10:16;100455.50;;;9.07;86.86
38806;BME280;25635;51.146;17.162;2022-10-31T01:12:46;100455.06;;;9.03;87.05
38806;BME280;25635;51.146;17.162;2022-10-31T01:15:18;100460.72;;;9.03;87.11
38806;BME280;25635;51.146;17.162;2022-10-31T01:17:45;100453.77;;;9.00;87.41
38806;BME280;25635;51.146;17.162;2022-10-31T01:20:13;100457.69;;;9.02;87.74
38806;BME280;25635;51.146;17.162;2022-10-31T01:22:41;100454.63;;;9.01;87.63
38806;BME280;25635;51.146;17.162;2022-10-31T01:25:09;100458.55;;;9.02;87.48
38806;BME280;25635;51.146;17.162;2022-10-31T01:27:35;100460.72;;;9.00;87.27
38806;BME280;25635;51.146;17.162;2022-10-31T01:30:03;100458.52;;;8.99;87.23
38806;BME280;25635;51.146;17.162;2022-10-31T01:32:30;100460.71;;;8.98;87.09
38806;BME280;25635;51.146;17.162;2022-10-31T01:34:56;100460.70;;;8.97;87.32
38806;BME280;25635;51.146;17.162;2022-10-31T01:37:23;100455.49;;;8.93;87.31
38806;BME280;25635;51.146;17.162;2022-10-31T01:39:49;100455.48;;;8.92;87.26
38806;BME280;25635;51.146;17.162;2022-10-31T01:42:18;100455.47;;;8.90;87.54
38806;BME280;25635;51.146;17.162;2022-10-31T01:44:59;100457.65;;;8.89;87.64
38806;BME280;25635;51.146;17.162;2022-10-31T01:47:28;100460.68;;;8.90;87.83
38806;BME280;25635;51.146;17.162;2022-10-31T01:49:57;100460.27;;;8.91;87.99
38806;BME280;25635;51.146;17.162;2022-10-31T01:52:30;100458.53;;;8.91;87.58
38806;BME280;25635;51.146;17.162;2022-10-31T01:55:13;100458.95;;;8.89;87.83
38806;BME280;25635;51.146;17.162;2022-10-31T01:57:50;100457.63;;;8.86;87.62
38806;BME280;25635;51.146;17.162;2022-10-31T02:02:45;100460.23;;;8.79;88.11
38806;BME280;25635;51.146;17.162;2022-10-31T02:05:16;100460.66;;;8.77;87.71
38806;BME280;25635;51.146;17.162;2022-10-31T02:07:57;100462.80;;;8.71;87.33
38806;BME280;25635;51.146;17.162;2022-10-31T02:10:29;100467.56;;;8.67;87.05
38806;BME280;25635;51.146;17.162;2022-10-31T02:12:58;100467.98;;;8.62;87.23
38806;BME280;25635;51.146;17.162;2022-10-31T02:15:28;100466.66;;;8.59;87.20
38806;BME280;25635;51.146;17.162;2022-10-31T02:17:57;100467.94;;;8.57;87.19
38806;BME280;25635;51.146;17.162;2022-10-31T02:20:25;100467.50;;;8.55;87.14
38806;BME280;25635;51.146;17.162;2022-10-31T02:32:09;100477.85;;;8.41;87.58
38806;BME280;25635;51.146;17.162;2022-10-31T02:35:03;100474.78;;;8.37;87.61
38806;BME280;25635;51.146;17.162;2022-10-31T02:40:22;100472.59;;;8.33;87.81
38806;BME280;25635;51.146;17.162;2022-10-31T02:43:05;100473.85;;;8.30;87.74
38806;BME280;25635;51.146;17.162;2022-10-31T02:45:55;100475.59;;;8.29;87.76
38806;BME280;25635;51.146;17.162;2022-10-31T02:48:27;100475.59;;;8.29;88.02
38806;BME280;25635;51.146;17.162;2022-10-31T02:50:59;100477.78;;;8.28;88.08
38806;BME280;25635;51.146;17.162;2022-10-31T02:53:33;100478.20;;;8.26;87.65
38806;BME280;25635;51.146;17.162;2022-10-31T02:56:12;100475.54;;;8.22;87.75
38806;BME280;25635;51.146;17.162;2022-10-31T02:58:55;100475.98;;;8.18;87.87
38806;BME280;25635;51.146;17.162;2022-10-31T03:01:46;100474.20;;;8.16;87.87
38806;BME280;25635;51.146;17.162;2022-10-31T03:04:29;100474.65;;;8.14;87.82
38806;BME280;25635;51.146;17.162;2022-10-31T03:07:28;100477.67;;;8.11;87.93
38806;BME280;25635;51.146;17.162;2022-10-31T03:15:50;100487.61;;;8.06;87.81
38806;BME280;25635;51.146;17.162;2022-10-31T03:20:58;100488.02;;;8.02;88.19
38806;BME280;25635;51.146;17.162;2022-10-31T03:23:32;100492.76;;;7.98;87.74
38806;BME280;25635;51.146;17.162;2022-10-31T03:26:02;100492.30;;;7.94;87.71
38806;BME280;25635;51.146;17.162;2022-10-31T03:28:42;100500.52;;;7.92;87.57
38806;BME280;25635;51.146;17.162;2022-10-31T03:31:06;100502.25;;;7.90;87.60
38806;BME280;25635;51.146;17.162;2022-10-31T03:33:35;100501.36;;;7.88;87.56
38806;BME280;25635;51.146;17.162;2022-10-31T03:36:05;100503.09;;;7.84;87.40
38806;BME280;25635;51.146;17.162;2022-10-31T03:38:35;100504.80;;;7.84;87.95
38806;BME280;25635;51.146;17.162;2022-10-31T03:41:03;100504.35;;;7.81;87.80
38806;BME280;25635;51.146;17.162;2022-10-31T03:43:36;100506.94;;;7.80;88.12
38806;BME280;25635;51.146;17.162;2022-10-31T03:46:04;100510.83;;;7.77;88.07
38806;BME280;25635;51.146;17.162;2022-10-31T03:48:31;100506.02;;;7.73;88.05
38806;BME280;25635;51.146;17.162;2022-10-31T03:51:08;100508.59;;;7.71;87.92
38806;BME280;25635;51.146;17.162;2022-10-31T03:56:41;100515.55;;;7.71;88.06
38806;BME280;25635;51.146;17.162;2022-10-31T03:59:18;100518.15;;;7.71;88.04
38806;BME280;25635;51.146;17.162;2022-10-31T04:01:50;100516.42;;;7.70;87.86
38806;BME280;25635;51.146;17.162;2022-10-31T04:04:19;100518.56;;;7.69;87.99
38806;BME280;25635;51.146;17.162;2022-10-31T04:06:46;100518.14;;;7.68;88.23
38806;BME280;25635;51.146;17.162;2022-10-31T04:09:14;100515.95;;;7.66;88.13
38806;BME280;25635;51.146;17.162;2022-10-31T04:11:46;100513.30;;;7.63;88.22
38806;BME280;25635;51.146;17.162;2022-10-31T04:14:15;100510.69;;;7.60;88.26
38806;BME280;25635;51.146;17.162;2022-10-31T04:16:43;100509.36;;;7.58;88.28
38806;BME280;25635;51.146;17.162;2022-10-31T04:19:11;100514.12;;;7.56;88.10
38806;BME280;25635;51.146;17.162;2022-10-31T04:21:38;100515.86;;;7.55;88.22
38806;BME280;25635;51.146;17.162;2022-10-31T04:24:05;100513.20;;;7.52;88.03
38806;BME280;25635;51.146;17.162;2022-10-31T04:26:32;100518.39;;;7.50;88.01
38806;BME280;25635;51.146;17.162;2022-10-31T04:28:58;100518.39;;;7.50;87.79
38806;BME280;25635;51.146;17.162;2022-10-31T04:31:24;100518.37;;;7.47;87.92
38806;BME280;25635;51.146;17.162;2022-10-31T04:33:50;100517.02;;;7.44;88.01
38806;BME280;25635;51.146;17.162;2022-10-31T04:36:16;100516.58;;;7.42;88.02
38806;BME280;25635;51.146;17.162;2022-10-31T04:38:43;100520.46;;;7.39;88.00
38806;BME280;25635;51.146;17.162;2022-10-31T04:41:09;100518.69;;;7.35;87.86
38806;BME280;25635;51.146;17.162;2022-10-31T04:43:36;100521.27;;;7.33;87.97
38806;BME280;25635;51.146;17.162;2022-10-31T04:46:03;100519.95;;;7.30;87.77
38806;BME280;25635;51.146;17.162;2022-10-31T04:48:30;100523.39;;;7.29;88.00
38806;BME280;25635;51.146;17.162;2022-10-31T04:51:00;100523.39;;;7.29;87.85
38806;BME280;25635;51.146;17.162;2022-10-31T04:53:28;100524.66;;;7.27;87.98
38806;BME280;25635;51.146;17.162;2022-10-31T04:55:54;100522.93;;;7.26;88.06
38806;BME280;25635;51.146;17.162;2022-10-31T04:58:27;100524.20;;;7.25;88.07
38806;BME280;25635;51.146;17.162;2022-10-31T05:00:54;100522.88;;;7.23;88.34
38806;BME280;25635;51.146;17.162;2022-10-31T05:03:21;100534.19;;;7.24;89.09
38806;BME280;25635;51.146;17.162;2022-10-31T05:05:48;100534.19;;;7.24;88.91
38806;BME280;25635;51.146;17.162;2022-10-31T05:08:15;100528.09;;;7.22;88.73
38806;BME280;25635;51.146;17.162;2022-10-31T05:10:41;100531.99;;;7.22;88.60
38806;BME280;25635;51.146;17.162;2022-10-31T05:13:08;100526.33;;;7.21;88.76
38806;BME280;25635;51.146;17.162;2022-10-31T05:15:35;100527.66;;;7.22;89.54
38806;BME280;25635;51.146;17.162;2022-10-31T05:18:01;100535.48;;;7.25;89.18
38806;BME280;25635;51.146;17.162;2022-10-31T05:20:29;100532.47;;;7.26;89.51
38806;BME280;25635;51.146;17.162;2022-10-31T05:22:57;100539.84;;;7.26;89.20
38806;BME280;25635;51.146;17.162;2022-10-31T05:25:26;100536.80;;;7.27;89.66
38806;BME280;25635;51.146;17.162;2022-10-31T05:27:56;100538.57;;;7.28;89.59
38806;BME280;25635;51.146;17.162;2022-10-31T05:30:28;100546.78;;;7.26;89.77
38806;BME280;25635;51.146;17.162;2022-10-31T05:32:56;100541.98;;;7.25;89.72
38806;BME280;25635;51.146;17.162;2022-10-31T05:35:31;100546.78;;;7.26;89.44
38806;BME280;25635;51.146;17.162;2022-10-31T05:37:58;100544.18;;;7.26;89.65
38806;BME280;25635;51.146;17.162;2022-10-31T05:40:26;100546.34;;;7.26;89.56
38806;BME280;25635;51.146;17.162;2022-10-31T05:42:54;100548.48;;;7.25;89.22
38806;BME280;25635;51.146;17.162;2022-10-31T05:45:22;100554.59;;;7.26;89.22
38806;BME280;25635;51.146;17.162;2022-10-31T05:47:58;100543.75;;;7.26;89.36
38806;BME280;25635;51.146;17.162;2022-10-31T05:50:25;100543.28;;;7.25;89.36
38806;BME280;25635;51.146;17.162;2022-10-31T05:53:01;100555.48;;;7.28;89.65
38806;BME280;25635;51.146;17.162;2022-10-31T05:55:30;100550.69;;;7.26;89.46
38806;BME280;25635;51.146;17.162;2022-10-31T05:57:56;100554.56;;;7.24;89.30
38806;BME280;25635;51.146;17.162;2022-10-31T06:00:24;100549.77;;;7.22;89.31
38806;BME280;25635;51.146;17.162;2022-10-31T06:02:59;100549.30;;;7.21;89.19
38806;BME280;25635;51.146;17.162;2022-10-31T06:05:28;100551.05;;;7.21;89.28
38806;BME280;25635;51.146;17.162;2022-10-31T06:07:55;100552.37;;;7.22;89.30
38806;BME280;25635;51.146;17.162;2022-10-31T06:10:22;100551.09;;;7.25;89.66
38806;BME280;25635;51.146;17.162;2022-10-31T06:12:49;100548.54;;;7.28;89.63
38806;BME280;25635;51.146;17.162;2022-10-31T06:15:16;100550.30;;;7.31;90.32
38806;BME280;25635;51.146;17.162;2022-10-31T06:17:43;100552.94;;;7.36;90.09
38806;BME280;25635;51.146;17.162;2022-10-31T06:20:10;100558.14;;;7.36;89.72
38806;BME280;25635;51.146;17.162;2022-10-31T06:22:37;100561.63;;;7.38;89.81
38806;BME280;25635;51.146;17.162;2022-10-31T06:25:03;100567.70;;;7.38;89.91
38806;BME280;25635;51.146;17.162;2022-10-31T06:27:30;100562.52;;;7.40;90.12
38806;BME280;25635;51.146;17.162;2022-10-31T06:29:56;100566.04;;;7.43;90.58
38806;BME280;25635;51.146;17.162;2022-10-31T06:32:22;100567.38;;;7.48;90.61
38806;BME280;25635;51.146;17.162;2022-10-31T06:34:49;100566.59;;;7.54;90.88
38806;BME280;25635;51.146;17.162;2022-10-31T06:37:15;100567.95;;;7.60;91.04
38806;BME280;25635;51.146;17.162;2022-10-31T06:39:41;100576.69;;;7.66;91.02
38806;BME280;25635;51.146;17.162;2022-10-31T06:42:08;100578.05;;;7.73;90.95
38806;BME280;25635;51.146;17.162;2022-10-31T06:44:35;100569.89;;;7.81;91.01
38806;BME280;25635;51.146;17.162;2022-10-31T06:47:01;100573.00;;;7.89;91.20
38806;BME280;25635;51.146;17.162;2022-10-31T06:49:27;100572.62;;;7.96;91.49
38806;BME280;25635;51.146;17.162;2022-10-31T06:51:54;100578.79;;;8.06;92.17
38806;BME280;25635;51.146;17.162;2022-10-31T06:54:20;100582.31;;;8.16;92.67
38806;BME280;25635;51.146;17.162;2022-10-31T06:56:47;100586.30;;;8.23;93.09
38806;BME280;25635;51.146;17.162;2022-10-31T06:59:16;100583.78;;;8.32;93.58
38806;BME280;25635;51.146;17.162;2022-10-31T07:01:42;100589.96;;;8.44;93.78
38806;BME280;25635;51.146;17.162;2022-10-31T07:04:12;100592.20;;;8.55;94.01
38806;BME280;25635;51.146;17.162;2022-10-31T07:06:38;100591.41;;;8.67;94.52
38806;BME280;25635;51.146;17.162;2022-10-31T07:09:05;100594.09;;;8.79;94.47
38806;BME280;25635;51.146;17.162;2022-10-31T07:11:31;100598.92;;;8.90;94.70
38806;BME280;25635;51.146;17.162;2022-10-31T07:13:58;100594.66;;;9.05;94.66
38806;BME280;25635;51.146;17.162;2022-10-31T07:16:24;100596.89;;;9.16;94.55
38806;BME280;25635;51.146;17.162;2022-10-31T07:18:50;100593.89;;;9.29;94.77
38806;BME280;25635;51.146;17.162;2022-10-31T07:21:17;100598.73;;;9.43;94.88
38806;BME280;25635;51.146;17.162;2022-10-31T07:23:43;100600.50;;;9.57;94.71
38806;BME280;25635;51.146;17.162;2022-10-31T07:26:10;100600.95;;;9.70;94.52
38806;BME280;25635;51.146;17.162;2022-10-31T07:28:36;100604.47;;;9.84;94.42
38806;BME280;25635;51.146;17.162;2022-10-31T07:31:02;100601.87;;;9.97;94.33
38806;BME280;25635;51.146;17.162;2022-10-31T07:33:28;100603.62;;;10.11;94.48
38806;BME280;25635;51.146;17.162;2022-10-31T07:35:55;100604.05;;;10.26;94.56
38806;BME280;25635;51.146;17.162;2022-10-31T07:38:21;100604.96;;;10.42;94.51
38806;BME280;25635;51.146;17.162;2022-10-31T07:40:49;100604.08;;;10.59;94.10
38806;BME280;25635;51.146;17.162;2022-10-31T07:43:20;100610.16;;;10.73;93.99
38806;BME280;25635;51.146;17.162;2022-10-31T07:45:53;100604.42;;;10.87;93.74
38806;BME280;25635;51.146;17.162;2022-10-31T07:48:20;100609.63;;;11.03;94.00
38806;BME280;25635;51.146;17.162;2022-10-31T07:50:47;100608.25;;;11.16;93.36
38806;BME280;25635;51.146;17.162;2022-10-31T07:53:14;100606.45;;;11.29;93.08
38806;BME280;25635;51.146;17.162;2022-10-31T07:55:42;100609.02;;;11.43;92.52
38806;BME280;25635;51.146;17.162;2022-10-31T07:58:11;100611.99;;;11.58;92.25
38806;BME280;25635;51.146;17.162;2022-10-31T08:00:43;100614.09;;;11.72;92.15
38806;BME280;25635;51.146;17.162;2022-10-31T08:03:13;100611.84;;;11.89;91.82
38806;BME280;25635;51.146;17.162;2022-10-31T08:05:41;100607.80;;;12.04;91.58
38806;BME280;25635;51.146;17.162;2022-10-31T08:08:10;100607.25;;;12.19;91.23
38806;BME280;25635;51.146;17.162;2022-10-31T08:10:36;100609.31;;;12.34;91.31
38806;BME280;25635;51.146;17.162;2022-10-31T08:13:05;100609.61;;;12.49;90.90
38806;BME280;25635;51.146;17.162;2022-10-31T08:15:36;100613.84;;;12.63;90.42
38806;BME280;25635;51.146;17.162;2022-10-31T08:18:06;100611.96;;;12.77;90.14
38806;BME280;25635;51.146;17.162;2022-10-31T08:20:34;100606.99;;;12.90;89.87
38806;BME280;25635;51.146;17.162;2022-10-31T08:23:02;100610.34;;;13.05;89.32
38806;BME280;25635;51.146;17.162;2022-10-31T08:25:32;100611.05;;;13.17;88.89
38806;BME280;25635;51.146;17.162;2022-10-31T08:27:59;100614.86;;;13.33;88.54
38806;BME280;25635;51.146;17.162;2022-10-31T08:30:28;100609.86;;;13.46;88.65
38806;BME280;25635;51.146;17.162;2022-10-31T08:33:14;100613.63;;;13.60;88.16
38806;BME280;25635;51.146;17.162;2022-10-31T08:35:42;100621.73;;;13.75;88.11
38806;BME280;25635;51.146;17.162;2022-10-31T08:38:11;100620.19;;;13.90;87.81
38806;BME280;25635;51.146;17.162;2022-10-31T08:40:38;100617.77;;;14.05;87.68
38806;BME280;25635;51.146;17.162;2022-10-31T08:43:16;100625.94;;;14.15;86.32
38806;BME280;25635;51.146;17.162;2022-10-31T08:45:44;100627.49;;;14.29;85.01
38806;BME280;25635;51.146;17.162;2022-10-31T08:48:14;100626.47;;;14.37;85.09
38806;BME280;25635;51.146;17.162;2022-10-31T08:50:42;100623.63;;;14.50;85.16
38806;BME280;25635;51.146;17.162;2022-10-31T08:53:12;100621.61;;;14.66;83.66
38806;BME280;25635;51.146;17.162;2022-10-31T08:55:40;100626.66;;;14.78;83.82
38806;BME280;25635;51.146;17.162;2022-10-31T08:58:10;100622.08;;;14.89;83.84
38806;BME280;25635;51.146;17.162;2022-10-31T09:00:38;100627.08;;;15.02;83.09
38806;BME280;25635;51.146;17.162;2022-10-31T09:03:06;100621.19;;;15.11;82.83
38806;BME280;25635;51.146;17.162;2022-10-31T09:05:39;100625.39;;;15.20;81.79
38806;BME280;25635;51.146;17.162;2022-10-31T09:08:07;100624.84;;;15.48;82.10
38806;BME280;25635;51.146;17.162;2022-10-31T09:10:35;100628.97;;;15.59;82.09
38806;BME280;25635;51.146;17.162;2022-10-31T09:13:06;100628.97;;;15.59;82.09
38806;BME280;25635;51.146;17.162;2022-10-31T09:15:39;100626.09;;;15.72;81.94
38806;BME280;25635;51.146;17.162;2022-10-31T09:18:08;100625.39;;;15.83;81.53
38806;BME280;25635;51.146;17.162;2022-10-31T09:20:36;100622.21;;;15.88;79.35
38806;BME280;25635;51.146;17.162;2022-10-31T09:23:09;100627.32;;;15.96;78.67
38806;BME280;25635;51.146;17.162;2022-10-31T09:25:38;100626.72;;;16.03;79.52
38806;BME280;25635;51.146;17.162;2022-10-31T09:28:06;100621.18;;;16.13;78.52
38806;BME280;25635;51.146;17.162;2022-10-31T09:30:35;100622.72;;;16.22;79.34
38806;BME280;25635;51.146;17.162;2022-10-31T09:33:04;100627.21;;;16.36;77.83
38806;BME280;25635;51.146;17.162;2022-10-31T09:35:33;100627.52;;;16.42;77.26
38806;BME280;25635;51.146;17.162;2022-10-31T09:38:08;100627.86;;;16.46;76.01
38806;BME280;25635;51.146;17.162;2022-10-31T09:40:38;100625.55;;;16.50;77.34
38806;BME280;25635;51.146;17.162;2022-10-31T09:43:39;100632.77;;;16.60;76.91
38806;BME280;25635;51.146;17.162;2022-10-31T09:46:18;100632.20;;;16.65;76.30
38806;BME280;25635;51.146;17.162;2022-10-31T09:49:02;100633.27;;;16.74;76.83
38806;BME280;25635;51.146;17.162;2022-10-31T09:51:48;100625.12;;;16.84;76.47
38806;BME280;25635;51.146;17.162;2022-10-31T09:56:56;100630.16;;;17.09;77.07
38806;BME280;25635;51.146;17.162;2022-10-31T09:59:33;100630.14;;;17.26;75.50
38806;BME280;25635;51.146;17.162;2022-10-31T10:02:16;100629.26;;;17.40;77.35
38806;BME280;25635;51.146;17.162;2022-10-31T10:04:57;100627.90;;;17.56;76.43
38806;BME280;25635;51.146;17.162;2022-10-31T10:07:41;100626.67;;;17.68;76.60
38806;BME280;25635;51.146;17.162;2022-10-31T10:13:09;100631.91;;;17.99;75.53
38806;BME280;25635;51.146;17.162;2022-10-31T10:18:44;100630.61;;;18.26;75.32
38806;BME280;25635;51.146;17.162;2022-10-31T10:30:27;100621.15;;;18.71;73.07
38806;BME280;25635;51.146;17.162;2022-10-31T10:32:51;100619.78;;;18.72;72.51
38806;BME280;25635;51.146;17.162;2022-10-31T10:40:42;100611.43;;;18.96;71.24
38806;BME280;25635;51.146;17.162;2022-10-31T10:49:11;100615.48;;;19.07;70.74
38806;BME280;25635;51.146;17.162;2022-10-31T10:54:46;100608.24;;;19.12;67.79
38806;BME280;25635;51.146;17.162;2022-10-31T10:57:37;100608.16;;;19.13;70.33
38806;BME280;25635;51.146;17.162;2022-10-31T11:00:24;100605.70;;;19.20;70.62
38806;BME280;25635;51.146;17.162;2022-10-31T11:02:54;100606.20;;;19.30;69.79
38806;BME280;25635;51.146;17.162;2022-10-31T11:05:48;100598.48;;;19.36;70.14
38806;BME280;25635;51.146;17.162;2022-10-31T11:08:28;100601.14;;;19.48;70.84
38806;BME280;25635;51.146;17.162;2022-10-31T11:14:11;100599.73;;;19.61;69.45
38806;BME280;25635;51.146;17.162;2022-10-31T11:16:43;100602.09;;;19.69;70.05
38806;BME280;25635;51.146;17.162;2022-10-31T11:19:25;100600.72;;;19.70;66.61
38806;BME280;25635;51.146;17.162;2022-10-31T11:21:50;100602.46;;;19.71;69.07
38806;BME280;25635;51.146;17.162;2022-10-31T11:24:19;100599.56;;;19.77;68.33
38806;BME280;25635;51.146;17.162;2022-10-31T11:26:50;100600.18;;;19.84;68.61
38806;BME280;25635;51.146;17.162;2022-10-31T11:29:25;100586.66;;;19.90;68.48
38806;BME280;25635;51.146;17.162;2022-10-31T11:31:53;100587.27;;;19.97;68.01
38806;BME280;25635;51.146;17.162;2022-10-31T11:34:30;100581.66;;;20.04;68.13
38806;BME280;25635;51.146;17.162;2022-10-31T11:37:03;100581.73;;;20.13;68.13
38806;BME280;25635;51.146;17.162;2022-10-31T11:39:44;100576.70;;;20.17;67.40
38806;BME280;25635;51.146;17.162;2022-10-31T11:42:15;100580.81;;;20.24;67.26
38806;BME280;25635;51.146;17.162;2022-10-31T11:44:42;100579.32;;;20.29;67.00
38806;BME280;25635;51.146;17.162;2022-10-31T11:47:12;100577.84;;;20.32;66.47
38806;BME280;25635;51.146;17.162;2022-10-31T11:49:46;100574.28;;;20.33;66.96
38806;BME280;25635;51.146;17.162;2022-10-31T11:52:20;100581.52;;;20.40;66.95
38806;BME280;25635;51.146;17.162;2022-10-31T11:57:50;100571.09;;;20.45;66.87
38806;BME280;25635;51.146;17.162;2022-10-31T12:08:28;100569.42;;;20.53;65.61
38806;BME280;25635;51.146;17.162;2022-10-31T12:11:27;100570.22;;;20.55;66.45
38806;BME280;25635;51.146;17.162;2022-10-31T12:20:18;100564.84;;;20.57;66.30
38806;BME280;25635;51.146;17.162;2022-10-31T12:28:51;100567.50;;;20.57;65.15
38806;BME280;25635;51.146;17.162;2022-10-31T12:31:56;100567.91;;;20.58;63.92
38806;BME280;25635;51.146;17.162;2022-10-31T12:37:11;100563.93;;;20.58;65.36
38806;BME280;25635;51.146;17.162;2022-10-31T12:39:59;100568.27;;;20.60;64.59
38806;BME280;25635;51.146;17.162;2022-10-31T12:57:21;100551.09;;;20.47;64.70
38806;BME280;25635;51.146;17.162;2022-10-31T13:00:00;100547.63;;;20.45;65.07
38806;BME280;25635;51.146;17.162;2022-10-31T13:02:41;100549.97;;;20.42;64.82
38806;BME280;25635;51.146;17.162;2022-10-31T13:08:17;100545.98;;;20.42;65.05
38806;BME280;25635;51.146;17.162;2022-10-31T13:10:52;100547.31;;;20.42;65.09
38806;BME280;25635;51.146;17.162;2022-10-31T13:13:36;100543.91;;;20.39;64.84
38806;BME280;25635;51.146;17.162;2022-10-31T13:16:18;100546.72;;;20.36;64.84
38806;BME280;25635;51.146;17.162;2022-10-31T13:18:57;100540.93;;;20.36;65.46
38806;BME280;25635;51.146;17.162;2022-10-31T13:21:42;100547.19;;;20.35;64.75
38806;BME280;25635;51.146;17.162;2022-10-31T13:27:25;100534.96;;;20.21;64.44
38806;BME280;25635;51.146;17.162;2022-10-31T13:30:14;100538.34;;;20.14;64.69
38806;BME280;25635;51.146;17.162;2022-10-31T13:33:01;100536.75;;;20.10;65.14
38806;BME280;25635;51.146;17.162;2022-10-31T13:35:42;100538.61;;;20.08;65.13
38806;BME280;25635;51.146;17.162;2022-10-31T13:38:24;100536.00;;;20.07;65.30
38806;BME280;25635;51.146;17.162;2022-10-31T13:49:03;100521.78;;;19.87;65.53
38806;BME280;25635;51.146;17.162;2022-10-31T13:51:34;100516.73;;;19.81;66.00
38806;BME280;25635;51.146;17.162;2022-10-31T13:54:06;100515.13;;;19.77;65.87
38806;BME280;25635;51.146;17.162;2022-10-31T13:56:35;100518.88;;;19.71;66.22
38806;BME280;25635;51.146;17.162;2022-10-31T14:01:54;100516.22;;;19.59;65.67
38806;BME280;25635;51.146;17.162;2022-10-31T14:04:37;100521.39;;;19.52;65.74
38806;BME280;25635;51.146;17.162;2022-10-31T14:07:09;100526.13;;;19.44;65.82
38806;BME280;25635;51.146;17.162;2022-10-31T14:12:43;100520.78;;;19.34;66.69
38806;BME280;25635;51.146;17.162;2022-10-31T14:15:18;100515.61;;;19.31;66.58
38806;BME280;25635;51.146;17.162;2022-10-31T14:17:56;100517.56;;;19.26;66.53
38806;BME280;25635;51.146;17.162;2022-10-31T14:20:34;100519.88;;;19.23;66.68
38806;BME280;25635;51.146;17.162;2022-10-31T14:23:12;100515.62;;;19.19;66.57
38806;BME280;25635;51.146;17.162;2022-10-31T14:26:17;100514.48;;;19.14;67.07
38806;BME280;25635;51.146;17.162;2022-10-31T14:29:20;100512.45;;;19.09;67.10
38806;BME280;25635;51.146;17.162;2022-10-31T14:31:44;100518.06;;;19.01;67.00
38806;BME280;25635;51.146;17.162;2022-10-31T14:37:16;100514.20;;;18.87;67.36
38806;BME280;25635;51.146;17.162;2022-10-31T14:42:49;100510.74;;;18.71;67.60
38806;BME280;25635;51.146;17.162;2022-10-31T14:45:49;100507.07;;;18.63;67.60
38806;BME280;25635;51.146;17.162;2022-10-31T14:51:36;100503.25;;;18.47;67.81
38806;BME280;25635;51.146;17.162;2022-10-31T14:54:07;100507.52;;;18.38;68.23
38806;BME280;25635;51.146;17.162;2022-10-31T14:56:40;100498.13;;;18.29;68.61
38806;BME280;25635;51.146;17.162;2022-10-31T14:59:14;100501.92;;;18.22;68.63
38806;BME280;25635;51.146;17.162;2022-10-31T15:01:48;100492.87;;;18.16;68.74
38806;BME280;25635;51.146;17.162;2022-10-31T15:04:22;100497.95;;;18.09;68.89
38806;BME280;25635;51.146;17.162;2022-10-31T15:09:34;100500.27;;;17.93;69.03
38806;BME280;25635;51.146;17.162;2022-10-31T15:12:21;100502.81;;;17.82;69.17
38806;BME280;25635;51.146;17.162;2022-10-31T15:14:53;100505.36;;;17.71;69.52
38806;BME280;25635;51.146;17.162;2022-10-31T15:17:22;100505.41;;;17.56;69.77
38806;BME280;25635;51.146;17.162;2022-10-31T15:19:50;100506.64;;;17.44;69.70
38806;BME280;25635;51.146;17.162;2022-10-31T15:22:20;100509.16;;;17.34;69.77